createdAt,value
2017-09-08T00:00:37.000Z,15.0
2017-09-08T00:01:38.372Z,14.9
2017-09-08T00:02:39.789Z,14.8
2017-09-08T00:03:41.161Z,14.8
2017-09-08T00:04:42.562Z,14.8
2017-09-08T00:05:43.951Z,14.8
2017-09-08T00:06:45.349Z,14.8
2017-09-08T00:07:46.720Z,14.7
2017-09-08T00:08:48.119Z,14.7
2017-09-08T00:09:49.495Z,14.6
2017-09-08T00:10:50.903Z,14.6
2017-09-08T00:11:52.282Z,14.5
2017-09-08T00:12:53.682Z,14.5
2017-09-08T00:13:55.049Z,14.5
2017-09-08T00:14:56.476Z,14.5
2017-09-08T00:15:57.849Z,14.5
2017-09-08T00:16:59.236Z,14.3
2017-09-08T00:18:00.607Z,14.4
2017-09-08T00:19:02.011Z,14.4
2017-09-08T00:20:03.389Z,14.3
2017-09-08T00:21:04.822Z,14.3
2017-09-08T00:22:06.191Z,14.3
2017-09-08T00:23:07.592Z,14.3
2017-09-08T00:24:08.965Z,14.3
2017-09-08T00:25:10.358Z,14.3
2017-09-08T00:26:11.733Z,14.2
2017-09-08T00:27:13.136Z,14.2
2017-09-08T00:28:14.920Z,14.2
2017-09-08T00:29:16.334Z,14.2
2017-09-08T00:30:17.729Z,14.2
2017-09-08T00:31:19.207Z,14.2
2017-09-08T00:32:20.588Z,14.3
2017-09-08T00:33:21.986Z,14.1
2017-09-08T00:34:23.355Z,14.2
2017-09-08T00:35:24.775Z,14.1
2017-09-08T00:36:26.201Z,14.1
2017-09-08T00:37:27.687Z,14.1
2017-09-08T00:38:29.411Z,14.1
2017-09-08T00:39:30.838Z,14.1
2017-09-08T00:40:32.213Z,14.0
2017-09-08T00:41:33.611Z,14.0
2017-09-08T00:42:34.998Z,14.0
2017-09-08T00:43:36.524Z,14.1
2017-09-08T00:44:38.253Z,14.0
2017-09-08T00:45:40.021Z,14.0
2017-09-08T00:46:41.684Z,14.1
2017-09-08T00:47:43.332Z,14.0
2017-09-08T00:48:44.957Z,14.0
2017-09-08T00:49:46.575Z,14.0
2017-09-08T00:50:48.087Z,14.0
2017-09-08T00:51:49.721Z,14.0
2017-09-08T00:52:51.327Z,14.0
2017-09-08T00:53:52.990Z,14.0
2017-09-08T00:54:54.572Z,13.9
2017-09-08T00:55:56.326Z,14.0
2017-09-08T00:56:57.959Z,13.9
2017-09-08T00:57:59.907Z,14.0
2017-09-08T00:59:01.759Z,14.0
2017-09-08T01:00:03.694Z,13.9
2017-09-08T01:01:05.324Z,13.9
2017-09-08T01:02:06.985Z,14.0
2017-09-08T01:03:08.757Z,14.0
2017-09-08T01:04:10.511Z,13.9
2017-09-08T01:05:12.217Z,14.0
2017-09-08T01:06:13.756Z,13.9
2017-09-08T01:07:15.287Z,13.9
2017-09-08T01:08:16.838Z,13.9
2017-09-08T01:09:18.454Z,13.9
2017-09-08T01:10:20.021Z,14.0
2017-09-08T01:11:21.478Z,14.0
2017-09-08T01:12:23.005Z,13.9
2017-09-08T01:13:24.477Z,13.9
2017-09-08T01:14:25.964Z,13.8
2017-09-08T01:15:27.535Z,13.9
2017-09-08T01:16:29.618Z,14.0
2017-09-08T01:17:31.394Z,13.9
2017-09-08T01:18:33.188Z,13.9
2017-09-08T01:19:34.643Z,13.9
2017-09-08T01:20:36.235Z,14.0
2017-09-08T01:21:37.702Z,13.9
2017-09-08T01:22:39.225Z,13.9
2017-09-08T01:23:40.747Z,14.0
2017-09-08T01:24:42.324Z,13.9
2017-09-08T01:25:43.935Z,14.0
2017-09-08T01:26:46.169Z,13.9
2017-09-08T01:27:47.639Z,13.9
2017-09-08T01:28:49.228Z,13.9
2017-09-08T01:29:50.854Z,13.9
2017-09-08T01:30:52.419Z,13.9
2017-09-08T01:31:53.859Z,14.0
2017-09-08T01:32:55.389Z,13.9
2017-09-08T01:33:56.850Z,14.0
2017-09-08T01:34:58.393Z,14.0
2017-09-08T01:35:59.905Z,14.0
2017-09-08T01:37:01.479Z,14.0
2017-09-08T01:38:03.022Z,14.0
2017-09-08T01:39:04.654Z,14.1
2017-09-08T01:40:06.118Z,14.0
2017-09-08T01:41:07.697Z,14.0
2017-09-08T01:42:09.205Z,14.0
2017-09-08T01:43:10.734Z,14.0
2017-09-08T01:44:12.193Z,14.0
2017-09-08T01:45:13.806Z,14.1
2017-09-08T01:46:15.252Z,14.1
2017-09-08T01:47:16.804Z,14.1
2017-09-08T01:48:18.254Z,14.1
2017-09-08T01:49:19.802Z,14.2
2017-09-08T01:50:21.267Z,14.2
2017-09-08T01:51:22.780Z,14.2
2017-09-08T01:52:24.349Z,14.2
2017-09-08T01:53:25.916Z,14.1
2017-09-08T01:54:27.437Z,14.3
2017-09-08T01:55:29.303Z,14.2
2017-09-08T01:56:31.406Z,14.3
2017-09-08T01:57:32.932Z,14.3
2017-09-08T01:58:34.890Z,14.4
2017-09-08T01:59:36.738Z,14.4
2017-09-08T02:00:38.697Z,14.4
2017-09-08T02:01:40.379Z,14.4
2017-09-08T02:02:41.979Z,14.4
2017-09-08T02:03:43.969Z,14.4
2017-09-08T02:04:45.670Z,14.4
2017-09-08T02:05:47.243Z,14.4
2017-09-08T02:06:48.774Z,14.5
2017-09-08T02:07:50.535Z,14.3
2017-09-08T02:08:52.213Z,14.5
2017-09-08T02:09:54.051Z,14.4
2017-09-08T02:10:55.737Z,14.5
2017-09-08T02:11:57.517Z,14.6
2017-09-08T02:12:59.105Z,14.5
2017-09-08T02:14:00.962Z,14.6
2017-09-08T02:15:02.770Z,14.5
2017-09-08T02:16:04.575Z,14.6
2017-09-08T02:17:06.078Z,14.6
2017-09-08T02:18:07.607Z,14.6
2017-09-08T02:19:09.147Z,14.6
2017-09-08T02:20:10.682Z,14.6
2017-09-08T02:21:12.139Z,14.7
2017-09-08T02:22:13.698Z,14.7
2017-09-08T02:23:15.131Z,14.8
2017-09-08T02:24:16.675Z,14.8
2017-09-08T02:25:18.145Z,14.8
2017-09-08T02:26:19.598Z,14.8
2017-09-08T02:27:21.080Z,14.8
2017-09-08T02:28:22.612Z,14.7
2017-09-08T02:29:24.085Z,14.8
2017-09-08T02:30:25.616Z,14.8
2017-09-08T02:31:27.147Z,14.8
2017-09-08T02:32:28.696Z,14.8
2017-09-08T02:33:30.480Z,14.8
2017-09-08T02:34:32.403Z,14.9
2017-09-08T02:35:34.095Z,14.9
2017-09-08T02:36:35.732Z,14.9
2017-09-08T02:37:37.195Z,14.9
2017-09-08T02:38:38.768Z,14.9
2017-09-08T02:39:40.201Z,15.0
2017-09-08T02:40:41.795Z,15.0
2017-09-08T02:41:43.233Z,15.0
2017-09-08T02:42:44.757Z,15.0
2017-09-08T02:43:46.212Z,15.0
2017-09-08T02:44:47.709Z,15.0
2017-09-08T02:45:49.187Z,15.0
2017-09-08T02:46:50.797Z,15.0
2017-09-08T02:47:52.301Z,15.0
2017-09-08T02:48:53.775Z,15.0
2017-09-08T02:49:55.160Z,15.1
2017-09-08T02:50:56.633Z,15.1
2017-09-08T02:51:58.073Z,15.1
2017-09-08T02:52:59.491Z,15.2
2017-09-08T02:54:00.934Z,15.1
2017-09-08T02:55:02.434Z,15.2
2017-09-08T02:56:03.883Z,15.1
2017-09-08T02:57:05.434Z,15.1
2017-09-08T02:58:06.862Z,15.1
2017-09-08T02:59:08.449Z,15.1
2017-09-08T03:00:09.897Z,15.2
2017-09-08T03:01:11.367Z,15.1
2017-09-08T03:02:12.880Z,15.2
2017-09-08T03:03:14.413Z,15.1
2017-09-08T03:04:15.836Z,15.1
2017-09-08T03:05:17.349Z,15.2
2017-09-08T03:06:18.819Z,15.1
2017-09-08T03:07:20.332Z,15.1
2017-09-08T03:08:21.778Z,15.1
2017-09-08T03:09:23.329Z,15.2
2017-09-08T03:10:24.810Z,15.3
2017-09-08T03:11:26.347Z,15.2
2017-09-08T03:12:27.801Z,15.2
2017-09-08T03:13:29.415Z,15.2
2017-09-08T03:14:30.909Z,15.2
2017-09-08T03:15:32.388Z,15.3
2017-09-08T03:16:33.818Z,15.3
2017-09-08T03:17:35.753Z,15.3
2017-09-08T03:18:37.260Z,15.3
2017-09-08T03:19:38.755Z,15.3
2017-09-08T03:20:40.232Z,15.3
2017-09-08T03:21:41.754Z,15.3
2017-09-08T03:22:43.243Z,15.3
2017-09-08T03:23:44.730Z,15.4
2017-09-08T03:24:46.188Z,15.4
2017-09-08T03:25:47.721Z,15.3
2017-09-08T03:26:49.242Z,15.4
2017-09-08T03:27:50.818Z,15.3
2017-09-08T03:28:52.273Z,15.4
2017-09-08T03:29:53.798Z,15.4
2017-09-08T03:30:55.259Z,15.4
2017-09-08T03:31:56.762Z,15.3
2017-09-08T03:32:58.242Z,15.4
2017-09-08T03:34:00.267Z,15.4
2017-09-08T03:35:02.062Z,15.3
2017-09-08T03:36:03.768Z,15.4
2017-09-08T03:37:05.439Z,15.3
2017-09-08T03:38:07.309Z,15.3
2017-09-08T03:39:08.861Z,15.2
2017-09-08T03:40:10.625Z,15.3
2017-09-08T03:41:12.389Z,15.3
2017-09-08T03:42:14.318Z,15.4
2017-09-08T03:43:15.921Z,15.3
2017-09-08T03:44:17.435Z,15.2
2017-09-08T03:45:19.113Z,15.2
2017-09-08T03:46:20.995Z,15.2
2017-09-08T03:47:22.680Z,15.3
2017-09-08T03:48:24.332Z,15.2
2017-09-08T03:49:26.094Z,15.2
2017-09-08T03:50:27.643Z,15.2
2017-09-08T03:51:29.132Z,15.1
2017-09-08T03:52:30.587Z,15.2
2017-09-08T03:53:31.987Z,15.1
2017-09-08T03:54:33.425Z,15.1
2017-09-08T03:55:34.944Z,15.2
2017-09-08T03:56:36.437Z,15.2
2017-09-08T03:57:37.907Z,15.1
2017-09-08T03:58:39.463Z,15.1
2017-09-08T03:59:40.894Z,15.1
2017-09-08T04:00:42.397Z,15.1
2017-09-08T04:01:43.808Z,15.1
2017-09-08T04:02:45.327Z,15.1
2017-09-08T04:03:46.779Z,15.1
2017-09-08T04:04:48.304Z,15.1
2017-09-08T04:05:49.748Z,15.0
2017-09-08T04:06:51.296Z,15.0
2017-09-08T04:07:52.771Z,15.0
2017-09-08T04:08:54.277Z,15.1
2017-09-08T04:09:55.771Z,15.0
2017-09-08T04:10:57.236Z,15.0
2017-09-08T04:11:58.681Z,15.0
2017-09-08T04:13:00.217Z,15.0
2017-09-08T04:14:01.653Z,15.0
2017-09-08T04:15:03.311Z,15.0
2017-09-08T04:16:04.862Z,15.0
2017-09-08T04:17:06.567Z,15.0
2017-09-08T04:18:08.193Z,15.0
2017-09-08T04:19:09.811Z,15.1
2017-09-08T04:20:11.384Z,15.0
2017-09-08T04:21:13.046Z,15.1
2017-09-08T04:22:14.612Z,15.1
2017-09-08T04:23:16.329Z,15.0
2017-09-08T04:24:17.793Z,15.0
2017-09-08T04:25:19.369Z,15.1
2017-09-08T04:26:21.136Z,15.0
2017-09-08T04:27:22.768Z,15.0
2017-09-08T04:28:24.313Z,15.1
2017-09-08T04:29:26.012Z,15.0
2017-09-08T04:30:27.503Z,15.0
2017-09-08T04:31:29.049Z,15.0
2017-09-08T04:32:30.465Z,15.0
2017-09-08T04:33:32.101Z,15.0
2017-09-08T04:34:33.729Z,15.0
2017-09-08T04:35:35.240Z,15.0
2017-09-08T04:36:36.721Z,15.0
2017-09-08T04:37:38.182Z,15.1
2017-09-08T04:38:39.672Z,15.1
2017-09-08T04:39:41.154Z,15.1
2017-09-08T04:40:42.639Z,15.1
2017-09-08T04:41:44.157Z,15.2
2017-09-08T04:42:45.604Z,15.1
2017-09-08T04:43:47.239Z,15.2
2017-09-08T04:44:48.651Z,15.2
2017-09-08T04:45:50.229Z,15.2
2017-09-08T04:46:51.633Z,15.2
2017-09-08T04:47:53.120Z,15.1
2017-09-08T04:48:54.578Z,15.2
2017-09-08T04:49:56.121Z,15.2
2017-09-08T04:50:57.608Z,15.2
2017-09-08T04:51:59.180Z,15.3
2017-09-08T04:53:00.689Z,15.2
2017-09-08T04:54:02.266Z,15.2
2017-09-08T04:55:03.703Z,15.3
2017-09-08T04:56:05.245Z,15.3
2017-09-08T04:57:06.741Z,15.3
2017-09-08T04:58:08.267Z,15.3
2017-09-08T04:59:09.712Z,15.2
2017-09-08T05:00:11.319Z,15.3
2017-09-08T05:01:12.764Z,15.3
2017-09-08T05:02:14.427Z,15.3
2017-09-08T05:03:15.925Z,15.3
2017-09-08T05:04:17.390Z,15.3
2017-09-08T05:05:18.879Z,15.3
2017-09-08T05:06:20.432Z,15.2
2017-09-08T05:07:22.018Z,15.2
2017-09-08T05:08:23.533Z,15.2
2017-09-08T05:09:25.116Z,15.2
2017-09-08T05:10:26.752Z,15.1
2017-09-08T05:11:28.725Z,15.2
2017-09-08T05:12:30.374Z,15.1
2017-09-08T05:13:33.197Z,15.1
2017-09-08T05:14:34.735Z,15.1
2017-09-08T05:15:36.146Z,15.1
2017-09-08T05:16:37.786Z,15.1
2017-09-08T05:17:39.194Z,15.1
2017-09-08T05:18:40.691Z,15.1
2017-09-08T05:19:42.170Z,15.1
2017-09-08T05:20:43.892Z,15.1
2017-09-08T05:21:45.554Z,15.1
2017-09-08T05:22:47.032Z,15.1
2017-09-08T05:23:48.493Z,15.1
2017-09-08T05:24:50.059Z,15.1
2017-09-08T05:25:51.620Z,15.1
2017-09-08T05:26:53.104Z,15.1
2017-09-08T05:27:54.792Z,15.1
2017-09-08T05:28:57.276Z,15.1
2017-09-08T05:29:57.942Z,15.1
2017-09-08T05:30:59.603Z,15.1
2017-09-08T05:32:01.165Z,15.1
2017-09-08T05:33:02.681Z,15.1
2017-09-08T05:34:04.187Z,15.1
2017-09-08T05:35:05.656Z,15.1
2017-09-08T05:36:07.199Z,15.2
2017-09-08T05:37:09.239Z,15.2
2017-09-08T05:38:10.665Z,15.2
2017-09-08T05:39:12.249Z,15.2
2017-09-08T05:40:13.767Z,15.2
2017-09-08T05:41:15.370Z,15.3
2017-09-08T05:42:16.906Z,15.2
2017-09-08T05:43:18.453Z,15.2
2017-09-08T05:44:19.953Z,15.3
2017-09-08T05:45:21.598Z,15.3
2017-09-08T05:46:23.207Z,15.3
2017-09-08T05:47:24.747Z,15.3
2017-09-08T05:48:26.505Z,15.4
2017-09-08T05:49:28.023Z,15.4
2017-09-08T05:50:29.527Z,15.3
2017-09-08T05:51:31.236Z,15.3
2017-09-08T05:52:32.909Z,15.4
2017-09-08T05:53:34.694Z,15.4
2017-09-08T05:54:36.437Z,15.5
2017-09-08T05:55:38.163Z,15.4
2017-09-08T05:56:39.793Z,15.4
2017-09-08T05:57:41.440Z,15.5
2017-09-08T05:58:42.905Z,15.5
2017-09-08T05:59:44.534Z,15.5
2017-09-08T06:00:46.034Z,15.5
2017-09-08T06:01:47.590Z,15.6
2017-09-08T06:02:49.099Z,15.6
2017-09-08T06:03:50.694Z,15.6
2017-09-08T06:04:52.254Z,15.7
2017-09-08T06:05:53.683Z,15.7
2017-09-08T06:06:55.161Z,15.7
2017-09-08T06:07:56.721Z,15.7
2017-09-08T06:08:58.206Z,15.7
2017-09-08T06:09:59.812Z,15.7
2017-09-08T06:11:01.300Z,15.6
2017-09-08T06:12:02.879Z,15.7
2017-09-08T06:13:04.326Z,15.7
2017-09-08T06:14:05.849Z,15.7
2017-09-08T06:15:13.788Z,15.7
2017-09-08T06:16:15.403Z,15.7
2017-09-08T06:17:20.321Z,15.8
2017-09-08T06:18:21.816Z,15.8
2017-09-08T06:19:23.216Z,15.8
2017-09-08T06:20:24.730Z,15.8
2017-09-08T06:21:26.336Z,15.8
2017-09-08T06:22:27.908Z,15.8
2017-09-08T06:23:29.398Z,15.9
2017-09-08T06:24:31.007Z,15.8
2017-09-08T06:25:32.461Z,15.8
2017-09-08T06:26:33.961Z,15.8
2017-09-08T06:27:35.392Z,15.9
2017-09-08T06:28:36.839Z,15.8
2017-09-08T06:29:38.375Z,15.8
2017-09-08T06:30:39.854Z,15.8
2017-09-08T06:31:41.301Z,15.9
2017-09-08T06:32:42.871Z,15.8
2017-09-08T06:33:44.332Z,15.9
2017-09-08T06:34:45.772Z,15.9
2017-09-08T06:35:47.225Z,16.0
2017-09-08T06:36:48.733Z,15.9
2017-09-08T06:37:50.313Z,16.0
2017-09-08T06:38:51.788Z,15.9
2017-09-08T06:39:53.224Z,15.9
2017-09-08T06:40:54.769Z,16.0
2017-09-08T06:41:56.340Z,15.9
2017-09-08T06:42:57.825Z,16.0
2017-09-08T06:43:59.295Z,16.0
2017-09-08T06:45:00.817Z,15.9
2017-09-08T06:46:02.270Z,15.9
2017-09-08T06:47:03.816Z,16.0
2017-09-08T06:48:05.256Z,15.9
2017-09-08T06:49:06.834Z,16.0
2017-09-08T06:50:08.327Z,15.9
2017-09-08T06:51:09.945Z,16.0
2017-09-08T06:52:11.412Z,16.0
2017-09-08T06:53:12.862Z,15.9
2017-09-08T06:54:14.315Z,15.9
2017-09-08T06:55:15.878Z,16.0
2017-09-08T06:56:17.330Z,16.0
2017-09-08T06:57:18.803Z,16.0
2017-09-08T06:58:20.235Z,15.9
2017-09-08T06:59:21.774Z,16.0
2017-09-08T07:00:23.212Z,15.9
2017-09-08T07:01:24.735Z,16.0
2017-09-08T07:02:26.191Z,16.0
2017-09-08T07:03:27.673Z,16.0
2017-09-08T07:04:29.113Z,15.9
2017-09-08T07:05:30.662Z,16.0
2017-09-08T07:06:32.179Z,16.1
2017-09-08T07:07:33.695Z,16.1
2017-09-08T07:08:35.162Z,16.0
2017-09-08T07:09:36.609Z,16.1
2017-09-08T07:10:38.078Z,16.0
2017-09-08T07:11:39.620Z,16.0
2017-09-08T07:12:41.067Z,16.2
2017-09-08T07:13:42.659Z,16.1
2017-09-08T07:14:44.203Z,16.1
2017-09-08T07:15:45.775Z,16.1
2017-09-08T07:16:47.409Z,16.1
2017-09-08T07:17:48.868Z,16.2
2017-09-08T07:18:50.285Z,16.2
2017-09-08T07:19:51.786Z,16.2
2017-09-08T07:20:53.210Z,16.3
2017-09-08T07:21:54.773Z,16.2
2017-09-08T07:22:56.178Z,16.2
2017-09-08T07:23:57.731Z,16.3
2017-09-08T07:24:59.154Z,16.3
2017-09-08T07:26:00.640Z,16.3
2017-09-08T07:27:02.142Z,16.2
2017-09-08T07:28:03.620Z,16.3
2017-09-08T07:29:05.061Z,16.3
2017-09-08T07:30:06.655Z,16.3
2017-09-08T07:31:08.177Z,16.3
2017-09-08T07:32:09.701Z,16.3
2017-09-08T07:33:11.121Z,16.3
2017-09-08T07:34:12.760Z,16.2
2017-09-08T07:35:14.217Z,16.3
2017-09-08T07:36:15.789Z,16.2
2017-09-08T07:37:17.266Z,16.2
2017-09-08T07:38:18.714Z,16.3
2017-09-08T07:39:20.240Z,16.1
2017-09-08T07:40:21.728Z,16.1
2017-09-08T07:41:23.343Z,16.1
2017-09-08T07:42:24.836Z,16.1
2017-09-08T07:43:26.279Z,15.9
2017-09-08T07:44:27.738Z,16.0
2017-09-08T07:45:29.250Z,16.0
2017-09-08T07:46:30.781Z,16.0
2017-09-08T07:47:32.329Z,15.9
2017-09-08T07:48:33.931Z,15.9
2017-09-08T07:49:35.425Z,15.9
2017-09-08T07:50:36.880Z,15.9
2017-09-08T07:51:38.330Z,15.9
2017-09-08T07:52:39.804Z,15.7
2017-09-08T07:53:41.266Z,15.7
2017-09-08T07:54:42.726Z,15.7
2017-09-08T07:55:44.178Z,15.7
2017-09-08T07:56:45.641Z,15.7
2017-09-08T07:57:47.081Z,15.6
2017-09-08T07:58:48.542Z,15.6
2017-09-08T07:59:49.984Z,15.6
2017-09-08T08:00:51.449Z,15.6
2017-09-08T08:01:53.008Z,15.6
2017-09-08T08:02:54.557Z,15.6
2017-09-08T08:03:56.078Z,15.5
2017-09-08T08:04:57.577Z,15.6
2017-09-08T08:05:59.134Z,15.6
2017-09-08T08:07:00.572Z,15.6
2017-09-08T08:08:02.049Z,15.6
2017-09-08T08:09:03.722Z,15.6
2017-09-08T08:10:05.210Z,15.6
2017-09-08T08:11:06.720Z,15.6
2017-09-08T08:12:08.212Z,15.6
2017-09-08T08:13:09.721Z,15.6
2017-09-08T08:14:11.201Z,15.6
2017-09-08T08:15:12.679Z,15.6
2017-09-08T08:16:14.129Z,15.6
2017-09-08T08:17:15.608Z,15.7
2017-09-08T08:18:17.134Z,15.7
2017-09-08T08:19:18.726Z,15.6
2017-09-08T08:20:20.218Z,15.7
2017-09-08T08:21:21.757Z,15.7
2017-09-08T08:22:23.197Z,15.7
2017-09-08T08:23:24.695Z,15.7
2017-09-08T08:24:26.135Z,15.7
2017-09-08T08:25:27.659Z,15.6
2017-09-08T08:26:29.189Z,15.7
2017-09-08T08:27:30.697Z,15.6
2017-09-08T08:28:32.259Z,15.5
2017-09-08T08:29:33.789Z,15.6
2017-09-08T08:30:35.439Z,15.4
2017-09-08T08:31:37.087Z,15.4
2017-09-08T08:32:38.568Z,15.4
2017-09-08T08:33:40.226Z,15.3
2017-09-08T08:34:41.845Z,15.2
2017-09-08T08:35:43.347Z,15.2
2017-09-08T08:36:44.800Z,15.2
2017-09-08T08:37:46.391Z,15.1
2017-09-08T08:38:47.897Z,15.1
2017-09-08T08:39:49.646Z,15.1
2017-09-08T08:40:51.078Z,15.0
2017-09-08T08:41:52.571Z,15.1
2017-09-08T08:42:54.074Z,15.0
2017-09-08T08:43:55.605Z,15.0
2017-09-08T08:44:57.125Z,15.0
2017-09-08T08:45:58.705Z,15.1
2017-09-08T08:47:00.226Z,15.0
2017-09-08T08:48:02.023Z,15.0
2017-09-08T08:49:03.572Z,15.0
2017-09-08T08:50:05.208Z,15.1
2017-09-08T08:51:06.666Z,15.0
2017-09-08T08:52:08.323Z,15.0
2017-09-08T08:53:09.837Z,15.1
2017-09-08T08:54:11.346Z,15.0
2017-09-08T08:55:12.794Z,15.0
2017-09-08T08:56:14.308Z,15.1
2017-09-08T08:57:15.895Z,15.0
2017-09-08T08:58:17.420Z,15.0
2017-09-08T08:59:18.927Z,15.0
2017-09-08T09:00:20.487Z,15.0
2017-09-08T09:01:22.033Z,15.0
2017-09-08T09:02:23.572Z,15.0
2017-09-08T09:03:25.065Z,15.0
2017-09-08T09:04:26.565Z,14.9
2017-09-08T09:05:28.033Z,14.9
2017-09-08T09:06:29.536Z,14.8
2017-09-08T09:07:31.032Z,14.9
2017-09-08T09:08:32.553Z,14.8
2017-09-08T09:09:33.986Z,14.8
2017-09-08T09:10:35.512Z,14.9
2017-09-08T09:11:37.036Z,14.9
2017-09-08T09:12:38.569Z,14.9
2017-09-08T09:13:40.104Z,15.0
2017-09-08T09:14:41.607Z,15.0
2017-09-08T09:15:43.134Z,14.9
2017-09-08T09:16:44.791Z,15.0
2017-09-08T09:17:46.337Z,15.0
2017-09-08T09:18:48.013Z,15.0
2017-09-08T09:19:49.394Z,15.1
2017-09-08T09:20:51.251Z,15.1
2017-09-08T09:21:53.021Z,15.1
2017-09-08T09:22:54.851Z,15.2
2017-09-08T09:23:56.675Z,15.2
2017-09-08T09:24:58.252Z,15.2
2017-09-08T09:26:00.424Z,15.3
2017-09-08T09:27:02.911Z,15.3
2017-09-08T09:28:04.527Z,15.3
2017-09-08T09:29:06.548Z,15.3
2017-09-08T09:30:08.522Z,15.3
2017-09-08T09:31:10.870Z,15.3
2017-09-08T09:32:12.666Z,15.4
2017-09-08T09:33:14.998Z,15.3
2017-09-08T09:34:16.675Z,15.4
2017-09-08T09:35:18.283Z,15.4
2017-09-08T09:36:20.122Z,15.3
2017-09-08T09:37:22.305Z,15.4
2017-09-08T09:38:23.953Z,15.4
2017-09-08T09:39:25.722Z,15.4
2017-09-08T09:40:27.795Z,15.4
2017-09-08T09:41:29.830Z,15.5
2017-09-08T09:42:31.954Z,15.5
2017-09-08T09:43:34.113Z,15.5
2017-09-08T09:44:35.747Z,15.5
2017-09-08T09:45:37.563Z,15.5
2017-09-08T09:46:39.723Z,15.5
2017-09-08T09:47:41.959Z,15.6
2017-09-08T09:48:43.756Z,15.6
2017-09-08T09:49:45.874Z,15.5
2017-09-08T09:50:47.529Z,15.6
2017-09-08T09:51:49.121Z,15.6
2017-09-08T09:52:50.949Z,15.7
2017-09-08T09:53:52.966Z,15.7
2017-09-08T09:54:54.469Z,15.7
2017-09-08T09:55:56.309Z,15.7
2017-09-08T09:56:57.884Z,15.7
2017-09-08T09:57:59.493Z,15.7
2017-09-08T09:59:01.175Z,15.8
2017-09-08T10:00:02.755Z,15.8
2017-09-08T10:01:04.297Z,15.7
2017-09-08T10:02:05.832Z,15.7
2017-09-08T10:03:07.300Z,15.7
2017-09-08T10:04:08.877Z,15.6
2017-09-08T10:05:10.395Z,15.7
2017-09-08T10:06:11.999Z,15.7
2017-09-08T10:07:13.616Z,15.7
2017-09-08T10:08:15.236Z,15.6
2017-09-08T10:09:16.880Z,15.6
2017-09-08T10:10:18.494Z,15.6
2017-09-08T10:11:20.182Z,15.6
2017-09-08T10:12:21.831Z,15.6
2017-09-08T10:13:23.384Z,15.7
2017-09-08T10:14:25.071Z,15.6
2017-09-08T10:15:26.619Z,15.6
2017-09-08T10:16:28.265Z,15.6
2017-09-08T10:17:29.841Z,15.6
2017-09-08T10:18:31.478Z,15.6
2017-09-08T10:19:33.008Z,15.6
2017-09-08T10:20:34.656Z,15.6
2017-09-08T10:21:36.310Z,15.6
2017-09-08T10:22:37.865Z,15.5
2017-09-08T10:23:39.420Z,15.6
2017-09-08T10:24:40.965Z,15.7
2017-09-08T10:25:42.590Z,15.6
2017-09-08T10:26:44.201Z,15.7
2017-09-08T10:27:46.077Z,15.6
2017-09-08T10:28:47.552Z,15.6
2017-09-08T10:29:49.471Z,15.6
2017-09-08T10:30:51.148Z,15.6
2017-09-08T10:31:52.811Z,15.6
2017-09-08T10:32:54.452Z,15.6
2017-09-08T10:33:56.129Z,15.6
2017-09-08T10:34:57.768Z,15.6
2017-09-08T10:35:59.343Z,15.6
2017-09-08T10:37:01.147Z,15.6
2017-09-08T10:38:02.742Z,15.5
2017-09-08T10:39:04.370Z,15.6
2017-09-08T10:40:06.048Z,15.7
2017-09-08T10:41:07.707Z,15.6
2017-09-08T10:42:09.254Z,15.6
2017-09-08T10:43:10.850Z,15.7
2017-09-08T10:44:12.609Z,15.6
2017-09-08T10:45:14.155Z,15.6
2017-09-08T10:46:15.675Z,15.5
2017-09-08T10:47:17.173Z,15.5
2017-09-08T10:48:18.874Z,15.5
2017-09-08T10:49:20.555Z,15.6
2017-09-08T10:50:22.065Z,15.5
2017-09-08T10:51:23.662Z,15.6
2017-09-08T10:52:25.312Z,15.6
2017-09-08T10:53:27.193Z,15.6
2017-09-08T10:54:28.859Z,15.5
2017-09-08T10:55:30.426Z,15.6
2017-09-08T10:56:31.915Z,15.6
2017-09-08T10:57:33.379Z,15.6
2017-09-08T10:58:34.875Z,15.6
2017-09-08T10:59:36.347Z,15.6
2017-09-08T11:00:37.849Z,15.6
2017-09-08T11:01:39.257Z,15.5
2017-09-08T11:02:40.832Z,15.5
2017-09-08T11:03:42.298Z,15.5
2017-09-08T11:04:43.783Z,15.5
2017-09-08T11:05:45.243Z,15.5
2017-09-08T11:06:46.715Z,15.5
2017-09-08T11:07:48.304Z,15.5
2017-09-08T11:08:49.734Z,15.5
2017-09-08T11:09:51.565Z,15.5
2017-09-08T11:10:53.128Z,15.4
2017-09-08T11:11:54.652Z,15.5
2017-09-08T11:12:56.213Z,15.5
2017-09-08T11:13:57.763Z,15.6
2017-09-08T11:14:59.360Z,15.5
2017-09-08T11:16:01.066Z,15.5
2017-09-08T11:17:02.841Z,15.6
2017-09-08T11:18:04.605Z,15.6
2017-09-08T11:19:06.552Z,15.6
2017-09-08T11:20:08.166Z,15.6
2017-09-08T11:21:09.842Z,15.6
2017-09-08T11:22:11.636Z,15.6
2017-09-08T11:23:13.415Z,15.7
2017-09-08T11:24:15.319Z,15.7
2017-09-08T11:25:17.000Z,15.6
2017-09-08T11:26:18.465Z,15.6
2017-09-08T11:27:20.172Z,15.5
2017-09-08T11:28:21.903Z,15.6
2017-09-08T11:29:23.336Z,15.6
2017-09-08T11:30:24.877Z,15.6
2017-09-08T11:31:26.339Z,15.7
2017-09-08T11:32:27.858Z,15.6
2017-09-08T11:33:29.362Z,15.7
2017-09-08T11:34:30.941Z,15.7
2017-09-08T11:35:32.370Z,15.7
2017-09-08T11:36:33.893Z,15.7
2017-09-08T11:37:35.370Z,15.7
2017-09-08T11:38:36.899Z,15.7
2017-09-08T11:39:38.285Z,15.7
2017-09-08T11:40:39.789Z,15.7
2017-09-08T11:41:41.251Z,15.7
2017-09-08T11:42:42.820Z,15.7
2017-09-08T11:43:44.296Z,15.8
2017-09-08T11:44:45.847Z,15.8
2017-09-08T11:45:47.344Z,15.7
2017-09-08T11:46:49.488Z,15.8
2017-09-08T11:47:50.975Z,15.8
2017-09-08T11:48:52.504Z,15.9
2017-09-08T11:49:53.924Z,15.8
2017-09-08T11:50:55.426Z,15.8
2017-09-08T11:51:56.850Z,15.8
2017-09-08T11:52:58.534Z,15.8
2017-09-08T11:54:00.104Z,15.8
2017-09-08T11:55:01.618Z,15.9
2017-09-08T11:56:03.132Z,15.9
2017-09-08T11:57:04.646Z,15.8
2017-09-08T11:58:06.073Z,15.9
2017-09-08T11:59:07.556Z,15.9
2017-09-08T12:00:08.961Z,15.9
2017-09-08T12:01:10.502Z,15.9
2017-09-08T12:02:12.148Z,16.0
2017-09-08T12:03:13.871Z,15.9
2017-09-08T12:04:15.345Z,16.0
2017-09-08T12:05:16.803Z,16.0
2017-09-08T12:06:18.485Z,16.1
2017-09-08T12:07:20.386Z,16.1
2017-09-08T12:08:21.818Z,16.2
2017-09-08T12:09:24.156Z,16.2
2017-09-08T12:10:25.886Z,16.2
2017-09-08T12:11:27.767Z,16.2
2017-09-08T12:12:29.622Z,16.3
2017-09-08T12:13:31.519Z,16.3
2017-09-08T12:14:33.237Z,16.4
2017-09-08T12:15:34.983Z,16.4
2017-09-08T12:16:36.678Z,16.4
2017-09-08T12:17:38.403Z,16.4
2017-09-08T12:18:40.144Z,16.3
2017-09-08T12:19:41.897Z,16.3
2017-09-08T12:20:43.605Z,16.3
2017-09-08T12:21:45.316Z,16.4
2017-09-08T12:22:47.105Z,16.2
2017-09-08T12:23:48.914Z,16.2
2017-09-08T12:24:50.621Z,16.3
2017-09-08T12:25:52.345Z,16.3
2017-09-08T12:26:53.797Z,16.2
2017-09-08T12:27:55.316Z,16.3
2017-09-08T12:28:56.709Z,16.2
2017-09-08T12:29:58.269Z,16.2
2017-09-08T12:30:59.716Z,16.1
2017-09-08T12:32:01.286Z,16.2
2017-09-08T12:33:02.738Z,16.2
2017-09-08T12:34:04.470Z,16.3
2017-09-08T12:35:05.905Z,16.3
2017-09-08T12:36:07.381Z,16.1
2017-09-08T12:37:09.022Z,16.1
2017-09-08T12:38:10.481Z,16.1
2017-09-08T12:39:11.994Z,16.1
2017-09-08T12:40:13.495Z,16.1
2017-09-08T12:41:15.011Z,16.1
2017-09-08T12:42:16.863Z,16.1
2017-09-08T12:43:18.387Z,16.1
2017-09-08T12:44:19.875Z,16.1
2017-09-08T12:45:21.365Z,16.1
2017-09-08T12:46:23.299Z,16.1
2017-09-08T12:47:24.804Z,16.1
2017-09-08T12:48:26.405Z,16.1
2017-09-08T12:49:27.919Z,16.1
2017-09-08T12:50:29.835Z,16.1
2017-09-08T12:51:31.366Z,16.1
2017-09-08T12:52:33.027Z,16.1
2017-09-08T12:53:34.688Z,16.1
2017-09-08T12:54:36.493Z,16.1
2017-09-08T12:55:38.156Z,16.1
2017-09-08T12:56:39.822Z,16.1
2017-09-08T12:57:41.279Z,16.2
2017-09-08T12:58:42.999Z,16.1
2017-09-08T12:59:44.450Z,16.1
2017-09-08T13:00:46.076Z,16.1
2017-09-08T13:01:47.554Z,16.1
2017-09-08T13:02:49.100Z,16.1
2017-09-08T13:03:50.586Z,16.0
2017-09-08T13:04:52.152Z,16.0
2017-09-08T13:05:53.586Z,16.0
2017-09-08T13:06:55.252Z,16.1
2017-09-08T13:07:56.653Z,16.1
2017-09-08T13:08:58.143Z,16.1
2017-09-08T13:09:59.665Z,16.1
2017-09-08T13:11:01.146Z,16.1
2017-09-08T13:12:02.649Z,16.0
2017-09-08T13:13:04.221Z,16.0
2017-09-08T13:14:05.763Z,16.0
2017-09-08T13:15:07.303Z,16.0
2017-09-08T13:16:08.794Z,15.9
2017-09-08T13:17:10.321Z,16.0
2017-09-08T13:18:11.865Z,16.0
2017-09-08T13:19:13.366Z,16.0
2017-09-08T13:20:14.815Z,16.0
2017-09-08T13:21:16.357Z,16.0
2017-09-08T13:22:17.896Z,16.0
2017-09-08T13:23:19.475Z,16.1
2017-09-08T13:24:20.970Z,16.1
2017-09-08T13:25:22.777Z,16.1
2017-09-08T13:26:24.210Z,16.1
2017-09-08T13:27:25.758Z,16.1
2017-09-08T13:28:27.176Z,16.1
2017-09-08T13:29:28.745Z,16.1
2017-09-08T13:30:30.088Z,16.1
2017-09-08T13:31:31.591Z,16.0
2017-09-08T13:32:33.036Z,16.2
2017-09-08T13:33:34.569Z,16.1
2017-09-08T13:34:35.979Z,16.1
2017-09-08T13:35:37.568Z,16.1
2017-09-08T13:36:39.169Z,16.1
2017-09-08T13:37:40.719Z,16.1
2017-09-08T13:38:42.171Z,16.1
2017-09-08T13:39:43.784Z,16.0